Hurdland, Missouri
Current Conditions -  °F | °C
As of 1:55 PM on Sunday 25 Jan 2015 (Local Time) from KIRK Reporting Station
Overcast Overcast  
Wind Chill: 22°   Ceiling: 1000
Heat Index: 33°   Visibility: 10mi
Dew Point: 31°   Wind: 20mph
Humidity: 92%   Direction: 10°N
Pressure: 29.82"   Gusts: NA
Location:  40.15°N, 92.3°W
Report Text: KIRK 251955Z AUTO 01017KT 10SM OVC010 01/M01 A2982 RMK AO2 PK WND 02026/1934 SNE20 CIG 008V013 SLP107 P0000 T00061006 $
Loading
Personal Weather Stations






























Interactive Weather Map New forecast layout! Learn more

10-Day Weather Forecast

Advertisements
Track Severe Weather on mobile